createdAt,value
2019-04-14T00:02:01.020Z,78.68
2019-04-14T00:05:33.731Z,78.68
2019-04-14T00:09:12.559Z,78.68
2019-04-14T00:12:42.718Z,78.71
2019-04-14T00:16:14.115Z,78.7
2019-04-14T00:19:45.522Z,78.69
2019-04-14T00:23:15.849Z,78.73
2019-04-14T00:26:46.704Z,78.71
2019-04-14T00:30:18.775Z,78.72
2019-04-14T00:33:49.887Z,78.73
2019-04-14T00:37:29.457Z,78.77
2019-04-14T00:41:05.287Z,78.77
2019-04-14T00:44:54.161Z,78.8
2019-04-14T00:48:27.570Z,78.84
2019-04-14T00:51:59.191Z,78.87
2019-04-14T00:55:29.414Z,78.88
2019-04-14T00:59:00.580Z,78.91
2019-04-14T01:00:18.637Z,78.93
2019-04-14T01:03:50.474Z,78.96
2019-04-14T01:07:21.625Z,78.98
2019-04-14T01:10:52.001Z,79.02
2019-04-14T01:14:23.131Z,79.05
2019-04-14T01:17:53.458Z,79.1
2019-04-14T01:21:24.238Z,79.13
2019-04-14T01:24:55.308Z,79.14
2019-04-14T01:28:26.483Z,79.17
2019-04-14T01:31:57.841Z,79.21
2019-04-14T01:35:29.169Z,79.24
2019-04-14T01:39:00.364Z,79.26
2019-04-14T01:42:31.056Z,79.29
2019-04-14T01:46:09.586Z,79.31
2019-04-14T01:49:46.616Z,79.36
2019-04-14T01:53:27.157Z,79.37
2019-04-14T01:57:11.228Z,79.41
2019-04-14T02:01:06.500Z,79.4
2019-04-14T02:04:37.717Z,79.46
2019-04-14T02:08:09.075Z,79.48
2019-04-14T02:11:39.884Z,79.49
2019-04-14T02:15:11.216Z,79.52
2019-04-14T02:18:42.628Z,79.53
2019-04-14T02:22:13.828Z,79.59
2019-04-14T02:25:45.050Z,79.59
2019-04-14T02:29:15.168Z,79.62
2019-04-14T02:33:20.191Z,79.65
2019-04-14T02:37:34.562Z,79.7
2019-04-14T02:42:06.792Z,79.74
2019-04-14T02:46:23.705Z,79.79
2019-04-14T02:50:36.955Z,79.83
2019-04-14T02:54:51.923Z,79.87
2019-04-14T02:58:58.348Z,79.92
2019-04-14T03:00:41.771Z,79.92
2019-04-14T03:04:57.037Z,79.99
2019-04-14T03:09:08.001Z,80.02
2019-04-14T03:20:59.057Z,80.17
2019-04-14T03:25:30.151Z,80.19
2019-04-14T03:29:37.181Z,80.26
2019-04-14T03:34:18.528Z,80.31
2019-04-14T03:38:37.005Z,80.36
2019-04-14T03:43:06.999Z,80.44
2019-04-14T03:47:21.776Z,80.52
2019-04-14T03:55:11.367Z,80.63
2019-04-14T03:58:51.135Z,80.67
2019-04-14T04:02:22.530Z,80.74
2019-04-14T04:05:52.823Z,80.76
2019-04-14T04:09:28.271Z,80.8
2019-04-14T04:12:59.527Z,80.88
2019-04-14T04:16:39.725Z,80.91
2019-04-14T04:22:41.321Z,80.95
2019-04-14T04:26:17.489Z,80.98
2019-04-14T04:29:57.021Z,81.02
2019-04-14T04:34:40.635Z,81.05
2019-04-14T04:38:16.619Z,81.1
2019-04-14T04:41:47.267Z,81.11
2019-04-14T04:45:19.154Z,81.19
2019-04-14T04:49:01.963Z,81.22
2019-04-14T04:52:36.587Z,81.29
2019-04-14T04:56:07.899Z,81.32
2019-04-14T04:59:38.791Z,81.39
2019-04-14T05:00:15.819Z,81.39
2019-04-14T05:03:46.910Z,81.45
2019-04-14T05:07:17.231Z,81.5
2019-04-14T05:10:52.497Z,81.57
2019-04-14T05:14:31.176Z,81.63
2019-04-14T05:18:01.285Z,81.64
2019-04-14T05:21:32.131Z,81.72
2019-04-14T05:25:03.602Z,81.78
2019-04-14T05:28:33.839Z,81.85
2019-04-14T05:32:04.470Z,81.86
2019-04-14T05:35:35.743Z,81.91
2019-04-14T05:39:06.816Z,81.98
2019-04-14T05:42:36.932Z,82.04
2019-04-14T05:46:07.965Z,82.08
2019-04-14T05:49:42.474Z,82.15
2019-04-14T05:53:17.496Z,82.22
2019-04-14T05:56:47.740Z,82.28
2019-04-14T06:00:19.166Z,82.34
2019-04-14T06:03:49.656Z,82.42
2019-04-14T06:07:19.714Z,82.46
2019-04-14T06:10:49.904Z,82.45
2019-04-14T06:14:19.944Z,82.49
2019-04-14T06:17:50.056Z,82.56
2019-04-14T06:21:20.110Z,82.63
2019-04-14T06:24:50.118Z,82.71
2019-04-14T06:28:20.103Z,82.74
2019-04-14T06:31:59.561Z,82.81
2019-04-14T06:35:56.973Z,82.88
2019-04-14T06:39:29.729Z,82.98
2019-04-14T06:42:59.789Z,83.05
2019-04-14T06:46:30.056Z,83.1
2019-04-14T06:50:00.065Z,83.17
2019-04-14T06:53:30.101Z,83.24
2019-04-14T06:57:00.200Z,83.32
2019-04-14T07:00:16.210Z,83.41
2019-04-14T07:03:46.327Z,83.43
2019-04-14T07:07:16.382Z,83.46
2019-04-14T07:10:46.433Z,83.55
2019-04-14T07:14:16.591Z,83.58
2019-04-14T07:17:46.619Z,83.59
2019-04-14T07:21:16.726Z,83.65
2019-04-14T07:24:46.746Z,83.65
2019-04-14T07:28:16.781Z,83.73
2019-04-14T07:32:30.722Z,83.77
2019-04-14T07:37:34.940Z,83.83
2019-04-14T07:41:44.174Z,83.86
2019-04-14T07:45:19.993Z,83.92
2019-04-14T07:48:58.275Z,83.94
2019-04-14T07:53:14.461Z,83.99
2019-04-14T07:57:26.950Z,84.07
2019-04-14T08:01:01.913Z,84.14
2019-04-14T08:04:34.503Z,84.17
2019-04-14T08:08:04.634Z,84.17
2019-04-14T08:11:34.799Z,84.16
2019-04-14T08:15:05.609Z,84.15
2019-04-14T08:18:35.718Z,84.14
2019-04-14T08:22:05.807Z,84.2
2019-04-14T08:25:35.863Z,84.25
2019-04-14T08:29:05.910Z,84.18
2019-04-14T08:32:36.054Z,84.13
2019-04-14T08:36:06.199Z,84.08
2019-04-14T08:39:36.268Z,84.06
2019-04-14T08:43:45.395Z,84.03
2019-04-14T08:52:12.146Z,83.99
2019-04-14T08:55:53.797Z,84.02
2019-04-14T08:59:32.666Z,84.02
2019-04-14T09:00:21.775Z,84.03
2019-04-14T09:06:16.619Z,84.04
2019-04-14T09:09:50.781Z,84.02
2019-04-14T09:13:20.888Z,84.05
2019-04-14T09:16:51.004Z,84.07
2019-04-14T09:20:21.075Z,84.07
2019-04-14T09:23:51.105Z,84.16
2019-04-14T09:27:21.217Z,84.17
2019-04-14T09:30:51.188Z,84.22
2019-04-14T09:34:21.287Z,84.2
2019-04-14T09:37:51.334Z,84.35
2019-04-14T09:41:21.433Z,84.29
2019-04-14T09:44:51.520Z,84.33
2019-04-14T09:48:21.508Z,84.36
2019-04-14T09:51:51.546Z,84.47
2019-04-14T09:55:23.476Z,84.46
2019-04-14T09:58:53.835Z,84.5
2019-04-14T10:02:23.870Z,84.51
2019-04-14T10:05:53.919Z,84.52
2019-04-14T10:09:24.055Z,84.53
2019-04-14T10:12:54.144Z,84.59
2019-04-14T10:16:24.222Z,84.59
2019-04-14T10:19:54.313Z,84.59
2019-04-14T10:23:24.382Z,84.63
2019-04-14T10:26:54.476Z,84.67
2019-04-14T10:30:24.585Z,84.71
2019-04-14T10:33:54.543Z,84.72
2019-04-14T10:37:24.669Z,84.7
2019-04-14T10:40:54.686Z,84.77
2019-04-14T10:44:24.915Z,84.75
2019-04-14T10:47:55.033Z,84.84
2019-04-14T10:51:30.200Z,84.87
2019-04-14T10:55:01.660Z,84.9
2019-04-14T10:58:32.711Z,84.99
2019-04-14T11:00:17.642Z,84.97
2019-04-14T11:03:47.656Z,85.02
2019-04-14T11:07:22.372Z,85.01
2019-04-14T11:10:52.413Z,85.11
2019-04-14T11:14:22.498Z,85.17
2019-04-14T11:17:52.659Z,85.16
2019-04-14T11:21:22.700Z,85.2
2019-04-14T11:24:52.733Z,85.19
2019-04-14T11:28:22.863Z,85.22
2019-04-14T11:32:04.039Z,85.2
2019-04-14T11:35:42.870Z,85.2
2019-04-14T11:39:14.088Z,85.12
2019-04-14T11:42:52.299Z,85.15
2019-04-14T11:46:22.900Z,85.14
2019-04-14T11:49:52.892Z,85.15
2019-04-14T11:53:23.057Z,85.17
2019-04-14T11:56:53.143Z,85.15
2019-04-14T12:00:50.227Z,85.12
2019-04-14T12:04:28.365Z,85.19
2019-04-14T12:08:07.219Z,85.2
2019-04-14T12:11:37.319Z,85.21
2019-04-14T12:15:07.726Z,85.24
2019-04-14T12:18:37.885Z,85.24
2019-04-14T12:22:08.831Z,85.27
2019-04-14T12:25:38.991Z,85.23
2019-04-14T12:29:09.740Z,85.27
2019-04-14T12:32:40.287Z,85.32
2019-04-14T12:36:11.256Z,85.33
2019-04-14T12:39:41.345Z,85.31
2019-04-14T12:43:22.872Z,85.32
2019-04-14T12:47:02.390Z,85.36
2019-04-14T12:50:35.788Z,85.36
2019-04-14T12:54:05.966Z,85.36
2019-04-14T12:57:45.457Z,85.4
2019-04-14T13:00:22.086Z,85.42
2019-04-14T13:03:53.161Z,85.44
2019-04-14T13:07:23.317Z,85.42
2019-04-14T13:10:53.559Z,85.46
2019-04-14T13:14:23.544Z,85.49
2019-04-14T13:17:53.659Z,85.44
2019-04-14T13:21:23.710Z,85.52
2019-04-14T13:24:53.850Z,85.55
2019-04-14T13:28:23.927Z,85.55
2019-04-14T13:31:54.011Z,85.56
2019-04-14T13:35:24.035Z,85.62
2019-04-14T13:38:54.109Z,85.53
2019-04-14T13:42:24.200Z,85.59
2019-04-14T13:45:54.368Z,85.58
2019-04-14T13:49:24.474Z,85.6
2019-04-14T13:52:54.590Z,85.64
2019-04-14T13:56:24.748Z,85.62
2019-04-14T13:59:54.850Z,85.65
2019-04-14T14:03:24.847Z,85.62
2019-04-14T14:06:55.895Z,85.66
2019-04-14T14:10:26.010Z,85.64
2019-04-14T14:14:02.421Z,85.7
2019-04-14T14:19:56.358Z,85.69
2019-04-14T14:23:31.567Z,85.72
2019-04-14T14:27:01.794Z,85.72
2019-04-14T14:30:31.872Z,85.75
2019-04-14T14:34:01.987Z,85.79
2019-04-14T14:37:32.088Z,85.83
2019-04-14T14:41:03.676Z,85.84
2019-04-14T14:44:38.521Z,85.83
2019-04-14T14:49:29.691Z,85.86
2019-04-14T14:53:11.491Z,85.91
2019-04-14T14:56:42.577Z,85.89
2019-04-14T15:00:23.815Z,85.95
2019-04-14T15:03:53.934Z,85.99
2019-04-14T15:07:24.968Z,85.97
2019-04-14T15:10:55.117Z,85.99
2019-04-14T15:14:25.244Z,85.99
2019-04-14T15:17:55.401Z,86.03
2019-04-14T15:21:25.480Z,86.07
2019-04-14T15:24:55.532Z,86.08
2019-04-14T15:28:25.661Z,86.15
2019-04-14T15:31:55.735Z,86.13
2019-04-14T15:35:25.877Z,86.15
2019-04-14T15:38:56.001Z,86.16
2019-04-14T15:42:26.083Z,86.18
2019-04-14T15:45:56.288Z,86.2
2019-04-14T15:49:26.392Z,86.22
2019-04-14T15:52:56.477Z,86.24
2019-04-14T15:56:35.770Z,86.25
2019-04-14T16:00:18.892Z,86.3
2019-04-14T16:03:54.657Z,86.3
2019-04-14T16:07:34.077Z,86.33
2019-04-14T16:13:26.087Z,86.34
2019-04-14T16:20:24.129Z,86.34
2019-04-14T16:23:54.117Z,86.35
2019-04-14T16:27:30.677Z,86.32
2019-04-14T16:33:25.480Z,86.4
2019-04-14T16:36:55.748Z,86.41
2019-04-14T16:40:25.959Z,86.43
2019-04-14T16:43:55.997Z,86.42
2019-04-14T16:47:26.083Z,86.45
2019-04-14T16:50:56.120Z,86.47
2019-04-14T16:54:39.552Z,86.5
2019-04-14T16:58:16.656Z,86.53
2019-04-14T17:00:21.774Z,86.54
2019-04-14T17:03:51.947Z,86.57
2019-04-14T17:07:21.994Z,86.59
2019-04-14T17:10:53.002Z,86.59
2019-04-14T17:14:30.120Z,86.63
2019-04-14T17:20:30.027Z,86.67
2019-04-14T17:24:10.630Z,86.68
2019-04-14T17:27:52.766Z,86.71
2019-04-14T17:31:32.301Z,86.74
2019-04-14T17:38:29.556Z,86.74
2019-04-14T17:42:20.369Z,86.77
2019-04-14T17:46:34.139Z,86.8
2019-04-14T17:50:17.951Z,86.77
2019-04-14T17:53:54.549Z,86.81
2019-04-14T17:57:59.317Z,86.84
2019-04-14T18:01:35.581Z,86.8
2019-04-14T18:05:08.924Z,86.81
2019-04-14T18:09:51.827Z,86.79
2019-04-14T18:13:28.555Z,86.78
2019-04-14T18:19:32.141Z,86.83
2019-04-14T18:23:02.169Z,86.83
2019-04-14T18:26:32.267Z,86.81
2019-04-14T18:30:22.268Z,86.83
2019-04-14T18:37:23.611Z,86.9
2019-04-14T18:41:02.813Z,86.91
2019-04-14T18:44:41.944Z,86.87
2019-04-14T18:48:24.376Z,86.88
2019-04-14T18:51:59.397Z,86.88
2019-04-14T18:56:06.261Z,86.93
2019-04-14T18:59:44.909Z,86.95
2019-04-14T19:00:25.766Z,86.94
2019-04-14T19:03:55.830Z,86.91
2019-04-14T19:07:25.954Z,86.95
2019-04-14T19:11:09.515Z,86.91
2019-04-14T19:14:40.283Z,86.95
2019-04-14T19:18:20.838Z,86.94
2019-04-14T19:21:50.879Z,86.92
2019-04-14T19:25:20.948Z,86.93
2019-04-14T19:28:50.998Z,86.96
2019-04-14T19:32:21.133Z,86.92
2019-04-14T19:35:51.307Z,86.97
2019-04-14T19:39:21.329Z,86.97
2019-04-14T19:42:51.447Z,87
2019-04-14T19:46:21.611Z,86.99
2019-04-14T19:49:51.751Z,87
2019-04-14T19:53:21.838Z,87.05
2019-04-14T19:56:51.999Z,86.99
2019-04-14T20:00:22.127Z,87.02
2019-04-14T20:03:52.114Z,87.02
2019-04-14T20:07:22.152Z,87.04
2019-04-14T20:10:52.223Z,87.03
2019-04-14T20:14:22.219Z,87.03
2019-04-14T20:17:59.566Z,87.04
2019-04-14T20:22:23.634Z,87.06
2019-04-14T20:26:36.989Z,87.1
2019-04-14T20:30:10.663Z,87.13
2019-04-14T20:33:40.779Z,87.15
2019-04-14T20:37:11.015Z,87.13
2019-04-14T20:40:41.043Z,87.18
2019-04-14T20:44:11.132Z,87.2
2019-04-14T20:47:41.280Z,87.17
2019-04-14T20:51:11.390Z,87.19
2019-04-14T20:54:41.439Z,87.12
2019-04-14T20:58:11.507Z,87.15
2019-04-14T21:00:15.852Z,87.11
2019-04-14T21:04:09.860Z,87.13
2019-04-14T21:07:47.945Z,87.14
2019-04-14T21:11:28.858Z,87.13
2019-04-14T21:15:08.250Z,87.18
2019-04-14T21:18:44.118Z,87.16
2019-04-14T21:22:21.049Z,87.17
2019-04-14T21:26:02.629Z,87.15
2019-04-14T21:29:48.216Z,87.21
2019-04-14T21:33:28.450Z,87.23
2019-04-14T21:37:07.848Z,87.24
2019-04-14T21:40:45.627Z,87.2
2019-04-14T21:44:15.834Z,87.25
2019-04-14T21:47:45.905Z,87.24
2019-04-14T21:51:16.056Z,87.32
2019-04-14T21:54:46.215Z,87.25
2019-04-14T21:58:22.498Z,87.28
2019-04-14T22:03:46.525Z,87.28
2019-04-14T22:07:37.581Z,87.3
2019-04-14T22:11:09.172Z,87.36
2019-04-14T22:14:39.259Z,87.3
2019-04-14T22:18:09.389Z,87.3
2019-04-14T22:21:40.403Z,87.32
2019-04-14T22:25:10.564Z,87.28
2019-04-14T22:28:40.601Z,87.3
2019-04-14T22:32:10.698Z,87.37
2019-04-14T22:35:40.834Z,87.36
2019-04-14T22:39:15.366Z,87.35
2019-04-14T22:42:45.872Z,87.36
2019-04-14T22:46:16.001Z,87.35
2019-04-14T22:49:45.956Z,87.43
2019-04-14T22:53:15.968Z,87.43
2019-04-14T22:56:46.025Z,87.42
2019-04-14T23:00:27.170Z,87.46
2019-04-14T23:04:12.692Z,87.42
2019-04-14T23:07:53.008Z,87.47
2019-04-14T23:11:48.446Z,87.49
2019-04-14T23:17:44.483Z,87.52
2019-04-14T23:21:20.111Z,87.53
2019-04-14T23:24:51.163Z,87.59
2019-04-14T23:28:21.474Z,87.62
2019-04-14T23:31:51.605Z,87.62
2019-04-14T23:35:21.624Z,87.68
2019-04-14T23:38:51.791Z,87.65
2019-04-14T23:42:21.870Z,87.68
2019-04-14T23:45:52.044Z,87.72
2019-04-14T23:49:22.184Z,87.74
2019-04-14T23:52:52.176Z,87.71
2019-04-14T23:56:22.414Z,87.78
2019-04-14T23:59:52.518Z,87.83
